createdAt,value
2023-07-07T00:00:06.819Z,1.70
2023-07-07T00:02:33.529Z,2.25
2023-07-07T00:05:03.676Z,2.38
2023-07-07T00:07:30.523Z,1.98
2023-07-07T00:09:57.185Z,2.05
2023-07-07T00:12:24.129Z,2.20
2023-07-07T00:17:26.425Z,1.67
2023-07-07T00:19:53.019Z,1.50
2023-07-07T00:22:20.224Z,1.83
2023-07-07T00:24:47.207Z,1.40
2023-07-07T00:27:15.406Z,1.45
2023-07-07T00:29:42.059Z,2.00
2023-07-07T00:32:09.080Z,1.63
2023-07-07T00:34:37.054Z,2.08
2023-07-07T00:39:30.258Z,1.67
2023-07-07T00:41:56.839Z,1.98
2023-07-07T00:44:29.975Z,2.28
2023-07-07T00:46:59.183Z,2.17
2023-07-07T00:49:25.801Z,2.00
2023-07-07T00:52:00.765Z,2.10
2023-07-07T00:54:32.549Z,2.10
2023-07-07T00:57:00.500Z,2.08
2023-07-07T00:59:32.949Z,1.98
2023-07-07T01:02:04.207Z,2.25
2023-07-07T01:04:32.352Z,1.77
2023-07-07T01:07:15.276Z,1.90
2023-07-07T01:09:44.503Z,2.33
2023-07-07T01:12:15.424Z,2.15
2023-07-07T01:14:44.656Z,2.88
2023-07-07T01:17:34.925Z,2.45
2023-07-07T01:20:17.629Z,2.20
2023-07-07T01:23:08.956Z,2.47
2023-07-07T01:25:46.703Z,2.60
2023-07-07T01:28:50.107Z,2.58
2023-07-07T01:31:32.108Z,2.70
2023-07-07T01:33:59.394Z,2.65
2023-07-07T01:36:26.356Z,2.58
2023-07-07T01:38:52.909Z,3.13
2023-07-07T01:41:37.380Z,3.55
2023-07-07T01:44:32.990Z,2.85
2023-07-07T01:47:09.526Z,3.15
2023-07-07T01:49:50.980Z,3.80
2023-07-07T01:52:23.519Z,3.55
2023-07-07T01:54:56.327Z,3.10
2023-07-07T01:57:26.586Z,3.15
2023-07-07T01:59:53.784Z,3.45
2023-07-07T02:02:20.706Z,3.90
2023-07-07T02:04:47.354Z,3.33
2023-07-07T02:07:14.228Z,4.28
2023-07-07T02:09:42.742Z,4.32
2023-07-07T02:12:09.560Z,4.53
2023-07-07T02:14:38.140Z,5.00
2023-07-07T02:17:05.544Z,4.65
2023-07-07T02:19:33.464Z,4.82
2023-07-07T02:22:06.191Z,4.03
2023-07-07T02:24:35.923Z,4.88
2023-07-07T02:27:02.707Z,5.00
2023-07-07T02:29:30.840Z,4.93
2023-07-07T02:31:57.476Z,5.72
2023-07-07T02:34:24.406Z,5.30
2023-07-07T02:36:53.306Z,5.55
2023-07-07T02:39:19.782Z,5.05
2023-07-07T02:41:51.751Z,6.13
2023-07-07T02:44:18.419Z,5.28
2023-07-07T02:46:45.430Z,5.95
2023-07-07T02:49:12.894Z,5.70
2023-07-07T02:51:39.811Z,7.30
2023-07-07T02:54:07.493Z,6.22
2023-07-07T02:56:34.264Z,6.47
2023-07-07T02:59:02.648Z,6.70
2023-07-07T03:01:29.875Z,6.40
2023-07-07T03:03:58.278Z,6.15
2023-07-07T03:06:26.452Z,6.68
2023-07-07T03:08:54.037Z,6.13
2023-07-07T03:11:24.974Z,8.00
2023-07-07T03:13:51.825Z,5.60
2023-07-07T03:16:32.224Z,6.07
2023-07-07T03:19:08.185Z,6.22
2023-07-07T03:21:34.884Z,6.13
2023-07-07T03:24:01.550Z,6.35
2023-07-07T03:26:29.004Z,6.03
2023-07-07T03:28:56.595Z,6.40
2023-07-07T03:31:29.860Z,6.18
2023-07-07T03:34:05.852Z,5.00
2023-07-07T03:36:34.767Z,5.88
2023-07-07T03:39:01.733Z,6.18
2023-07-07T03:41:30.696Z,5.05
2023-07-07T03:43:58.170Z,6.25
2023-07-07T03:46:27.918Z,6.10
2023-07-07T03:48:55.681Z,6.68
2023-07-07T03:51:24.956Z,6.53
2023-07-07T03:53:52.342Z,5.55
2023-07-07T03:56:20.171Z,5.93
2023-07-07T03:58:47.682Z,6.22
2023-07-07T04:01:17.475Z,6.63
2023-07-07T04:03:46.840Z,6.53
2023-07-07T04:06:18.329Z,6.20
2023-07-07T04:08:45.003Z,6.97
2023-07-07T04:11:21.743Z,7.95
2023-07-07T04:13:53.085Z,6.95
2023-07-07T04:16:25.477Z,6.38
2023-07-07T04:18:55.953Z,6.93
2023-07-07T04:21:27.758Z,6.65
2023-07-07T04:23:57.507Z,7.85
2023-07-07T04:26:26.262Z,6.55
2023-07-07T04:28:54.219Z,7.57
2023-07-07T04:31:24.742Z,6.68
2023-07-07T04:33:52.079Z,8.15
2023-07-07T04:36:21.588Z,7.43
2023-07-07T04:38:50.793Z,6.40
2023-07-07T04:41:28.190Z,6.80
2023-07-07T04:44:00.984Z,6.80
2023-07-07T04:46:30.711Z,8.02
2023-07-07T04:49:01.134Z,6.85
2023-07-07T04:51:28.153Z,7.43
2023-07-07T04:53:54.890Z,6.72
2023-07-07T04:56:23.485Z,6.15
2023-07-07T04:58:52.414Z,6.32
2023-07-07T05:01:25.118Z,5.60
2023-07-07T05:03:55.379Z,5.35
2023-07-07T05:06:23.746Z,6.32
2023-07-07T05:08:50.244Z,5.60
2023-07-07T05:11:19.534Z,5.25
2023-07-07T05:13:47.878Z,5.15
2023-07-07T05:16:18.560Z,5.28
2023-07-07T05:18:45.321Z,4.55
2023-07-07T05:21:14.177Z,5.05
2023-07-07T05:23:41.784Z,4.88
2023-07-07T05:26:09.457Z,4.78
2023-07-07T05:28:36.787Z,4.50
2023-07-07T05:31:08.807Z,4.28
2023-07-07T05:33:38.188Z,3.92
2023-07-07T05:36:07.268Z,4.75
2023-07-07T05:38:33.868Z,4.65
2023-07-07T05:41:00.931Z,4.53
2023-07-07T05:43:28.520Z,4.28
2023-07-07T05:46:04.231Z,4.43
2023-07-07T05:48:31.379Z,3.90
2023-07-07T05:51:05.111Z,4.05
2023-07-07T05:53:31.877Z,4.32
2023-07-07T05:56:05.057Z,3.85
2023-07-07T05:58:32.037Z,3.72
2023-07-07T06:00:59.338Z,3.33
2023-07-07T06:03:26.475Z,3.65
2023-07-07T06:05:53.649Z,3.35
2023-07-07T06:08:20.583Z,3.20
2023-07-07T06:10:51.582Z,3.67
2023-07-07T06:13:19.251Z,3.22
2023-07-07T06:18:12.911Z,3.33
2023-07-07T06:20:39.512Z,2.80
2023-07-07T06:23:09.744Z,3.40
2023-07-07T06:25:36.309Z,3.03
2023-07-07T06:28:03.066Z,3.22
2023-07-07T06:30:31.077Z,3.45
2023-07-07T06:33:00.081Z,2.72
2023-07-07T06:35:28.082Z,3.05
2023-07-07T06:40:22.074Z,3.05
2023-07-07T06:42:51.167Z,2.63
2023-07-07T06:45:18.216Z,2.78
2023-07-07T06:47:45.527Z,2.95
2023-07-07T06:50:42.727Z,3.15
2023-07-07T06:53:11.551Z,2.85
2023-07-07T06:55:39.323Z,3.42
2023-07-07T07:00:33.802Z,2.40
2023-07-07T07:03:05.043Z,2.92
2023-07-07T07:05:37.410Z,2.97
2023-07-07T07:08:10.438Z,1.92
2023-07-07T07:10:37.487Z,2.17
2023-07-07T07:13:04.402Z,2.08
2023-07-07T07:15:31.476Z,2.20
2023-07-07T07:17:58.843Z,2.42
2023-07-07T07:20:25.656Z,2.28
2023-07-07T07:22:52.635Z,2.35
2023-07-07T07:25:19.498Z,2.70
2023-07-07T07:27:46.221Z,2.78
2023-07-07T07:30:17.004Z,1.90
2023-07-07T07:32:47.031Z,2.20
2023-07-07T07:35:14.215Z,2.13
2023-07-07T07:37:41.201Z,2.70
2023-07-07T07:40:09.390Z,2.05
2023-07-07T07:42:36.622Z,2.45
2023-07-07T07:45:15.048Z,2.10
2023-07-07T07:47:41.826Z,1.80
2023-07-07T07:50:08.996Z,2.13
2023-07-07T07:52:35.689Z,2.15
2023-07-07T07:55:02.399Z,1.92
2023-07-07T07:57:29.942Z,1.92
2023-07-07T07:59:56.655Z,2.55
2023-07-07T08:02:23.511Z,1.67
2023-07-07T08:04:51.176Z,2.47
2023-07-07T08:07:18.315Z,2.17
2023-07-07T08:09:46.701Z,1.73
2023-07-07T08:12:16.954Z,1.98
2023-07-07T08:14:45.965Z,2.22
2023-07-07T08:17:15.217Z,1.27
2023-07-07T08:19:43.791Z,1.80
2023-07-07T08:22:16.596Z,1.85
2023-07-07T08:24:49.116Z,1.92
2023-07-07T08:29:47.107Z,1.92
2023-07-07T08:32:16.473Z,1.73
2023-07-07T08:37:13.952Z,1.88
2023-07-07T08:39:40.836Z,1.50
2023-07-07T08:42:29.485Z,1.80
2023-07-07T08:44:59.183Z,1.85
2023-07-07T08:48:11.265Z,1.67
2023-07-07T08:50:48.340Z,1.50
2023-07-07T08:53:33.632Z,2.03
2023-07-07T08:56:25.173Z,1.90
2023-07-07T08:59:10.139Z,1.95
2023-07-07T09:01:45.118Z,1.85
2023-07-07T09:04:19.175Z,1.35
2023-07-07T09:07:04.828Z,2.00
2023-07-07T09:09:53.374Z,1.60
2023-07-07T09:12:39.681Z,1.52
2023-07-07T09:15:20.002Z,1.48
2023-07-07T09:17:51.841Z,1.55
2023-07-07T09:20:21.083Z,1.50
2023-07-07T09:22:55.819Z,1.60
2023-07-07T09:25:49.152Z,1.60
2023-07-07T09:28:18.462Z,1.42
2023-07-07T09:30:57.839Z,1.70
2023-07-07T09:36:36.956Z,1.55
2023-07-07T09:39:18.627Z,1.58
2023-07-07T09:42:18.130Z,1.63
2023-07-07T09:45:17.142Z,1.85
2023-07-07T09:47:54.924Z,1.50
2023-07-07T09:50:33.943Z,1.77
2023-07-07T09:53:21.548Z,1.70
2023-07-07T09:55:51.522Z,2.35
2023-07-07T09:58:36.988Z,1.52
2023-07-07T10:01:05.604Z,1.77
2023-07-07T10:03:55.572Z,1.95
2023-07-07T10:06:49.859Z,1.75
2023-07-07T10:09:19.524Z,1.70
2023-07-07T10:12:14.486Z,1.60
2023-07-07T10:14:34.254Z,1.58
2023-07-07T10:19:27.856Z,1.67
2023-07-07T10:21:54.471Z,1.60
2023-07-07T10:24:21.651Z,1.88
2023-07-07T10:26:49.108Z,1.65
2023-07-07T10:29:23.571Z,1.90
2023-07-07T10:31:52.288Z,1.50
2023-07-07T10:34:23.722Z,1.23
2023-07-07T10:36:54.255Z,1.77
2023-07-07T10:39:24.414Z,1.75
2023-07-07T10:41:51.427Z,1.85
2023-07-07T10:44:18.091Z,1.75
2023-07-07T10:46:44.974Z,1.90
2023-07-07T10:49:17.170Z,2.38
2023-07-07T10:52:13.611Z,1.75
2023-07-07T10:54:47.002Z,1.90
2023-07-07T10:57:41.042Z,1.60
2023-07-07T11:00:34.659Z,2.03
2023-07-07T11:03:27.437Z,2.05
2023-07-07T11:06:04.530Z,1.77
2023-07-07T11:08:54.100Z,1.70
2023-07-07T11:11:44.915Z,1.98
2023-07-07T11:14:19.119Z,2.25
2023-07-07T11:17:22.263Z,2.22
2023-07-07T11:20:06.349Z,2.25
2023-07-07T11:23:13.623Z,1.95
2023-07-07T11:26:07.863Z,1.77
2023-07-07T11:28:44.129Z,1.90
2023-07-07T11:31:55.160Z,2.60
2023-07-07T11:34:44.152Z,2.38
2023-07-07T11:37:30.074Z,1.80
2023-07-07T11:40:26.760Z,2.40
2023-07-07T11:43:00.231Z,2.15
2023-07-07T11:45:36.903Z,2.20
2023-07-07T11:48:14.421Z,2.10
2023-07-07T11:51:02.973Z,2.33
2023-07-07T11:53:44.978Z,2.20
2023-07-07T11:56:30.909Z,1.77
2023-07-07T11:59:22.452Z,2.15
2023-07-07T12:01:53.917Z,2.28
2023-07-07T12:04:26.931Z,1.73
2023-07-07T12:07:00.296Z,1.92
2023-07-07T12:10:00.477Z,2.03
2023-07-07T12:12:42.957Z,2.22
2023-07-07T12:15:31.024Z,2.30
2023-07-07T12:18:11.472Z,2.40
2023-07-07T12:20:46.739Z,2.05
2023-07-07T12:23:22.981Z,1.77
2023-07-07T12:25:49.791Z,3.45
2023-07-07T12:28:16.825Z,1.88
2023-07-07T12:30:48.264Z,2.22
2023-07-07T12:33:17.584Z,1.95
2023-07-07T12:35:53.215Z,1.83
2023-07-07T12:38:35.690Z,1.88
2023-07-07T12:41:12.016Z,2.40
2023-07-07T12:43:41.410Z,2.45
2023-07-07T12:46:19.916Z,2.75
2023-07-07T12:48:47.717Z,2.10
2023-07-07T12:51:18.653Z,2.22
2023-07-07T12:53:48.984Z,2.55
2023-07-07T12:56:25.213Z,2.15
2023-07-07T12:59:02.947Z,2.30
2023-07-07T13:01:37.855Z,2.28
2023-07-07T13:04:14.419Z,2.53
2023-07-07T13:07:04.692Z,2.40
2023-07-07T13:09:47.960Z,2.95
2023-07-07T13:12:44.781Z,2.72
2023-07-07T13:15:31.291Z,2.00
2023-07-07T13:18:02.200Z,2.20
2023-07-07T13:20:28.950Z,2.85
2023-07-07T13:23:21.798Z,2.15
2023-07-07T13:25:48.637Z,2.50
2023-07-07T13:28:17.734Z,2.30
2023-07-07T13:30:53.859Z,2.60
2023-07-07T13:33:28.822Z,3.17
2023-07-07T13:35:58.579Z,2.35
2023-07-07T13:38:29.411Z,2.45
2023-07-07T13:41:01.973Z,1.92
2023-07-07T13:43:35.241Z,2.33
2023-07-07T13:48:50.113Z,2.22
2023-07-07T13:51:24.971Z,2.10
2023-07-07T13:53:53.002Z,2.30
2023-07-07T13:56:20.402Z,2.20
2023-07-07T13:58:49.662Z,2.80
2023-07-07T14:01:26.497Z,2.33
2023-07-07T14:03:58.144Z,2.40
2023-07-07T14:06:26.932Z,2.00
2023-07-07T14:08:55.251Z,2.40
2023-07-07T14:11:27.376Z,2.35
2023-07-07T14:13:57.991Z,1.98
2023-07-07T14:16:39.589Z,2.05
2023-07-07T14:19:22.366Z,2.28
2023-07-07T14:21:54.045Z,1.90
2023-07-07T14:24:33.632Z,2.03
2023-07-07T14:27:08.845Z,2.13
2023-07-07T14:29:39.727Z,2.58
2023-07-07T14:32:17.272Z,2.05
2023-07-07T14:34:55.164Z,2.30
2023-07-07T14:37:53.491Z,2.10
2023-07-07T14:40:28.749Z,2.50
2023-07-07T14:42:57.087Z,2.08
2023-07-07T14:45:27.862Z,2.35
2023-07-07T14:47:57.462Z,2.53
2023-07-07T14:50:33.555Z,2.13
2023-07-07T14:53:01.384Z,2.00
2023-07-07T14:55:30.429Z,2.08
2023-07-07T14:58:02.576Z,2.17
2023-07-07T15:00:37.298Z,2.30
2023-07-07T15:03:27.446Z,2.47
2023-07-07T15:06:15.192Z,1.95
2023-07-07T15:08:48.779Z,2.38
2023-07-07T15:11:15.893Z,2.10
2023-07-07T15:13:44.656Z,2.15
2023-07-07T15:16:17.230Z,2.22
2023-07-07T15:18:44.123Z,2.08
2023-07-07T15:21:19.539Z,2.17
2023-07-07T15:23:49.347Z,2.25
2023-07-07T15:26:32.081Z,2.65
2023-07-07T15:29:00.620Z,2.33
2023-07-07T15:31:29.056Z,2.15
2023-07-07T15:33:56.454Z,2.85
2023-07-07T15:38:59.728Z,2.58
2023-07-07T15:41:29.223Z,2.30
2023-07-07T15:43:56.486Z,2.60
2023-07-07T15:46:32.672Z,2.28
2023-07-07T15:49:03.197Z,2.58
2023-07-07T15:51:46.613Z,1.83
2023-07-07T15:54:13.715Z,2.83
2023-07-07T15:59:22.020Z,2.53
2023-07-07T16:01:51.763Z,2.47
2023-07-07T16:04:20.650Z,2.70
2023-07-07T16:06:49.372Z,2.60
2023-07-07T16:09:20.025Z,2.40
2023-07-07T16:11:47.940Z,2.55
2023-07-07T16:14:17.240Z,2.35
2023-07-07T16:16:47.379Z,2.60
2023-07-07T16:19:17.191Z,2.03
2023-07-07T16:21:44.821Z,2.55
2023-07-07T16:24:11.927Z,2.60
2023-07-07T16:26:41.839Z,2.15
2023-07-07T16:29:14.627Z,2.78
2023-07-07T16:31:43.923Z,2.10
2023-07-07T16:34:18.384Z,2.38
2023-07-07T16:36:45.263Z,2.90
2023-07-07T16:39:21.885Z,2.38
2023-07-07T16:41:49.841Z,2.20
2023-07-07T16:44:16.785Z,2.80
2023-07-07T16:46:44.246Z,2.33
2023-07-07T16:49:13.807Z,2.58
2023-07-07T16:51:42.931Z,2.70
2023-07-07T16:54:10.602Z,2.70
2023-07-07T16:56:41.329Z,2.50
2023-07-07T16:59:17.089Z,2.20
2023-07-07T17:01:45.946Z,2.42
2023-07-07T17:04:13.960Z,2.30
2023-07-07T17:06:44.380Z,2.45
2023-07-07T17:09:15.063Z,2.30
2023-07-07T17:11:44.416Z,2.00
2023-07-07T17:14:11.815Z,2.83
2023-07-07T17:16:42.413Z,2.20
2023-07-07T17:19:20.414Z,2.40
2023-07-07T17:21:57.509Z,2.33
2023-07-07T17:24:33.254Z,2.50
2023-07-07T17:27:06.012Z,2.20
2023-07-07T17:29:36.230Z,3.30
2023-07-07T17:32:04.600Z,2.47
2023-07-07T17:34:31.460Z,2.17
2023-07-07T17:36:59.276Z,2.33
2023-07-07T17:39:26.178Z,2.30
2023-07-07T17:41:54.798Z,2.33
2023-07-07T17:44:21.694Z,2.17
2023-07-07T17:46:48.927Z,2.38
2023-07-07T17:49:24.742Z,2.10
2023-07-07T17:51:52.129Z,1.95
2023-07-07T17:56:54.493Z,2.13
2023-07-07T17:59:24.300Z,2.30
2023-07-07T18:01:56.245Z,2.13
2023-07-07T18:04:25.145Z,2.10
2023-07-07T18:06:56.206Z,2.35
2023-07-07T18:09:23.274Z,2.03
2023-07-07T18:11:53.125Z,1.90
2023-07-07T18:14:25.164Z,2.45
2023-07-07T18:17:06.420Z,1.77
2023-07-07T18:20:09.763Z,2.30
2023-07-07T18:22:29.132Z,2.25
2023-07-07T18:24:56.329Z,2.28
2023-07-07T18:27:24.243Z,2.80
2023-07-07T18:29:53.207Z,2.55
2023-07-07T18:32:21.342Z,2.55
2023-07-07T18:34:48.340Z,2.80
2023-07-07T18:37:16.020Z,3.78
2023-07-07T18:39:50.009Z,3.35
2023-07-07T18:42:23.314Z,2.63
2023-07-07T18:44:53.327Z,2.17
2023-07-07T18:47:21.867Z,1.85
2023-07-07T18:49:48.851Z,2.00
2023-07-07T18:52:17.387Z,2.10
2023-07-07T18:54:44.090Z,2.30
2023-07-07T18:57:11.693Z,2.70
2023-07-07T18:59:40.342Z,2.55
2023-07-07T19:02:17.670Z,2.30
2023-07-07T19:04:46.588Z,2.15
2023-07-07T19:07:16.754Z,1.77
2023-07-07T19:09:45.186Z,2.20
2023-07-07T19:12:12.469Z,1.80
2023-07-07T19:14:39.880Z,2.10
2023-07-07T19:17:14.209Z,1.80
2023-07-07T19:19:43.991Z,2.20
2023-07-07T19:22:14.557Z,2.03
2023-07-07T19:24:42.453Z,1.95
2023-07-07T19:27:12.360Z,2.17
2023-07-07T19:29:39.311Z,2.33
2023-07-07T19:32:14.929Z,2.03
2023-07-07T19:34:43.243Z,2.08
2023-07-07T19:37:11.614Z,1.90
2023-07-07T19:39:44.066Z,2.03
2023-07-07T19:42:11.976Z,1.77
2023-07-07T19:44:43.859Z,2.17
2023-07-07T19:47:15.782Z,2.42
2023-07-07T19:49:42.884Z,1.77
2023-07-07T19:52:16.865Z,2.00
2023-07-07T19:54:47.428Z,1.80
2023-07-07T19:57:19.518Z,2.22
2023-07-07T19:59:47.442Z,1.98
2023-07-07T20:02:18.204Z,2.00
2023-07-07T20:04:45.483Z,2.33
2023-07-07T20:07:14.655Z,2.00
2023-07-07T20:09:43.666Z,2.03
2023-07-07T20:12:16.423Z,2.25
2023-07-07T20:14:45.158Z,2.28
2023-07-07T20:17:13.943Z,2.45
2023-07-07T20:19:43.645Z,2.45
2023-07-07T20:22:27.247Z,2.50
2023-07-07T20:27:21.789Z,2.10
2023-07-07T20:29:49.036Z,2.40
2023-07-07T20:32:17.747Z,2.97
2023-07-07T20:34:47.209Z,1.80
2023-07-07T20:37:15.142Z,1.90
2023-07-07T20:39:42.234Z,2.47
2023-07-07T20:42:12.301Z,2.30
2023-07-07T20:44:41.564Z,1.95
2023-07-07T20:47:11.368Z,2.72
2023-07-07T20:49:38.593Z,2.72
2023-07-07T20:52:11.603Z,2.80
2023-07-07T20:54:38.831Z,2.47
2023-07-07T20:57:19.351Z,2.67
2023-07-07T20:59:47.935Z,2.28
2023-07-07T21:02:15.138Z,2.42
2023-07-07T21:04:42.096Z,2.40
2023-07-07T21:07:16.044Z,2.35
2023-07-07T21:09:43.517Z,2.53
2023-07-07T21:12:11.020Z,2.30
2023-07-07T21:14:38.003Z,2.17
2023-07-07T21:17:05.349Z,2.22
2023-07-07T21:19:35.464Z,2.15
2023-07-07T21:22:12.158Z,2.45
2023-07-07T21:24:40.367Z,2.33
2023-07-07T21:27:10.602Z,2.13
2023-07-07T21:29:39.598Z,2.50
2023-07-07T21:32:11.949Z,2.10
2023-07-07T21:34:42.192Z,2.00
2023-07-07T21:37:12.980Z,2.20
2023-07-07T21:39:39.736Z,2.58
2023-07-07T21:42:12.928Z,2.20
2023-07-07T21:47:13.960Z,1.95
2023-07-07T21:49:40.947Z,2.65
2023-07-07T21:52:16.194Z,2.53
2023-07-07T21:54:43.609Z,2.33
2023-07-07T21:57:33.544Z,2.28
2023-07-07T22:00:01.220Z,2.08
2023-07-07T22:04:55.691Z,2.05
2023-07-07T22:07:22.728Z,2.13
2023-07-07T22:09:50.384Z,2.50
2023-07-07T22:12:17.215Z,2.58
2023-07-07T22:14:44.283Z,2.35
2023-07-07T22:17:12.398Z,2.95
2023-07-07T22:19:39.974Z,2.85
2023-07-07T22:22:11.712Z,2.53
2023-07-07T22:24:39.090Z,2.22
2023-07-07T22:27:06.138Z,2.25
2023-07-07T22:29:33.348Z,2.90
2023-07-07T22:32:00.162Z,2.50
2023-07-07T22:34:27.435Z,2.53
2023-07-07T22:36:54.684Z,2.25
2023-07-07T22:39:21.683Z,3.42
2023-07-07T22:41:48.866Z,2.30
2023-07-07T22:44:16.219Z,2.72
2023-07-07T22:46:44.177Z,2.53
2023-07-07T22:49:14.694Z,1.98
2023-07-07T22:51:42.985Z,3.00
2023-07-07T22:54:09.997Z,3.00
2023-07-07T22:56:38.492Z,3.08
2023-07-07T22:59:22.496Z,2.60
2023-07-07T23:01:49.475Z,2.75
2023-07-07T23:04:17.550Z,3.05
2023-07-07T23:06:46.034Z,2.33
2023-07-07T23:09:47.827Z,2.80
2023-07-07T23:12:20.152Z,2.25
2023-07-07T23:14:49.167Z,2.70
2023-07-07T23:17:28.506Z,2.50
2023-07-07T23:19:58.389Z,2.70
2023-07-07T23:22:48.202Z,2.15
2023-07-07T23:25:15.382Z,3.05
2023-07-07T23:27:50.578Z,2.45
2023-07-07T23:30:24.298Z,3.33
2023-07-07T23:32:52.901Z,2.50
2023-07-07T23:35:21.835Z,2.58
2023-07-07T23:37:52.611Z,2.60
2023-07-07T23:40:32.421Z,3.00
2023-07-07T23:43:01.725Z,2.88
2023-07-07T23:45:32.057Z,3.03
2023-07-07T23:48:03.514Z,2.67
2023-07-07T23:50:35.504Z,3.42
2023-07-07T23:53:11.227Z,3.50
2023-07-07T23:55:38.770Z,3.15
2023-07-07T23:58:05.867Z,3.15
